createdAt,value
2018-06-08T00:00:05.406Z,1.15
2018-06-08T00:02:32.877Z,0.60
2018-06-08T00:05:00.333Z,0.80
2018-06-08T00:07:27.844Z,0.82
2018-06-08T00:09:55.880Z,0.80
2018-06-08T00:12:23.839Z,0.85
2018-06-08T00:14:51.301Z,0.85
2018-06-08T00:17:18.777Z,0.77
2018-06-08T00:19:46.284Z,0.60
2018-06-08T00:22:13.942Z,0.80
2018-06-08T00:24:41.361Z,0.70
2018-06-08T00:27:08.811Z,0.80
2018-06-08T00:29:36.303Z,0.80
2018-06-08T00:32:03.735Z,0.70
2018-06-08T00:34:31.164Z,0.75
2018-06-08T00:36:58.562Z,0.70
2018-06-08T00:39:26.047Z,1.00
2018-06-08T00:41:53.531Z,0.80
2018-06-08T00:44:21.027Z,0.70
2018-06-08T00:46:49.710Z,0.90
2018-06-08T00:49:17.191Z,1.00
2018-06-08T00:51:44.690Z,0.70
2018-06-08T00:54:12.097Z,0.70
2018-06-08T00:56:39.554Z,1.15
2018-06-08T00:59:15.610Z,0.80
2018-06-08T01:01:43.076Z,1.00
2018-06-08T01:04:10.484Z,0.70
2018-06-08T01:06:37.892Z,0.70
2018-06-08T01:09:05.475Z,0.80
2018-06-08T01:11:32.907Z,0.80
2018-06-08T01:22:31.829Z,0.70
2018-06-08T01:24:59.929Z,1.12
2018-06-08T01:27:27.516Z,0.98
2018-06-08T01:29:54.946Z,1.00
2018-06-08T01:32:22.426Z,0.90
2018-06-08T01:34:49.867Z,0.88
2018-06-08T01:37:17.273Z,0.73
2018-06-08T01:39:45.397Z,0.80
2018-06-08T01:42:12.831Z,1.00
2018-06-08T01:44:40.250Z,1.00
2018-06-08T01:47:07.693Z,0.70
2018-06-08T01:49:35.090Z,1.00
2018-06-08T01:52:03.373Z,0.90
2018-06-08T01:54:30.787Z,1.20
2018-06-08T01:56:58.220Z,0.80
2018-06-08T01:59:25.658Z,1.40
2018-06-08T02:01:53.230Z,0.93
2018-06-08T02:04:22.402Z,1.15
2018-06-08T02:06:49.877Z,0.80
2018-06-08T02:09:18.022Z,0.90
2018-06-08T02:11:45.463Z,0.80
2018-06-08T02:14:12.877Z,0.82
2018-06-08T02:16:40.315Z,1.40
2018-06-08T02:19:08.977Z,0.90
2018-06-08T02:21:40.778Z,1.10
2018-06-08T02:24:08.594Z,0.80
2018-06-08T02:26:36.019Z,0.80
2018-06-08T02:29:03.513Z,1.00
2018-06-08T02:31:30.923Z,0.90
2018-06-08T02:33:58.322Z,1.23
2018-06-08T02:36:25.782Z,1.08
2018-06-08T02:38:53.236Z,0.85
2018-06-08T02:41:20.777Z,1.10
2018-06-08T02:43:52.543Z,1.45
2018-06-08T02:46:21.586Z,0.80
2018-06-08T02:48:49.063Z,1.00
2018-06-08T02:51:16.514Z,0.70
2018-06-08T02:53:44.028Z,1.15
2018-06-08T02:56:11.495Z,0.95
2018-06-08T02:58:40.157Z,1.30
2018-06-08T03:01:07.620Z,1.10
2018-06-08T03:03:35.166Z,1.08
2018-06-08T03:06:02.637Z,1.25
2018-06-08T03:08:30.091Z,0.60
2018-06-08T03:10:57.523Z,1.30
2018-06-08T03:13:24.919Z,0.80
2018-06-08T03:15:52.443Z,1.17
2018-06-08T03:18:20.940Z,1.10
2018-06-08T03:20:48.429Z,1.10
2018-06-08T03:23:15.833Z,1.05
2018-06-08T03:25:43.299Z,0.88
2018-06-08T03:28:12.227Z,1.05
2018-06-08T03:30:39.653Z,0.70
2018-06-08T03:33:07.398Z,0.85
2018-06-08T03:35:35.591Z,0.70
2018-06-08T03:38:03.454Z,0.90
2018-06-08T03:40:32.051Z,1.02
2018-06-08T03:42:59.515Z,0.90
2018-06-08T03:45:27.067Z,0.80
2018-06-08T03:47:56.027Z,1.00
2018-06-08T03:50:23.509Z,1.27
2018-06-08T03:52:50.958Z,1.10
2018-06-08T03:55:18.407Z,1.10
2018-06-08T03:57:45.866Z,1.20
2018-06-08T04:00:14.152Z,0.77
2018-06-08T04:02:41.746Z,1.00
2018-06-08T04:05:09.281Z,0.70
2018-06-08T04:07:37.316Z,1.10
2018-06-08T04:10:04.709Z,1.10
2018-06-08T04:12:32.189Z,1.50
2018-06-08T04:14:59.963Z,1.42
2018-06-08T04:17:27.429Z,0.95
2018-06-08T04:19:54.932Z,1.00
2018-06-08T04:22:23.540Z,1.00
2018-06-08T04:24:51.039Z,1.10
2018-06-08T04:27:19.517Z,0.90
2018-06-08T04:29:48.087Z,1.40
2018-06-08T04:32:16.924Z,0.80
2018-06-08T04:34:44.433Z,1.27
2018-06-08T04:37:11.903Z,1.45
2018-06-08T04:39:39.361Z,1.20
2018-06-08T04:42:06.872Z,1.15
2018-06-08T04:44:34.345Z,1.45
2018-06-08T04:47:01.772Z,1.00
2018-06-08T04:49:29.224Z,1.77
2018-06-08T04:51:56.695Z,0.82
2018-06-08T04:54:37.295Z,1.67
2018-06-08T04:57:05.818Z,1.33
2018-06-08T04:59:33.262Z,1.30
2018-06-08T05:02:00.694Z,1.10
2018-06-08T05:04:28.199Z,1.10
2018-06-08T05:06:56.175Z,1.33
2018-06-08T05:09:23.716Z,2.28
2018-06-08T05:11:51.147Z,2.00
2018-06-08T05:14:18.624Z,2.12
2018-06-08T05:16:46.090Z,1.73
2018-06-08T05:19:13.551Z,2.90
2018-06-08T05:21:40.979Z,1.45
2018-06-08T05:24:08.559Z,1.23
2018-06-08T05:26:36.075Z,1.20
2018-06-08T05:29:06.302Z,2.83
2018-06-08T05:31:33.706Z,1.98
2018-06-08T05:34:01.123Z,1.52
2018-06-08T05:36:29.752Z,1.65
2018-06-08T05:38:58.199Z,1.62
2018-06-08T05:41:25.665Z,1.40
2018-06-08T05:43:56.785Z,1.27
2018-06-08T05:46:24.241Z,3.05
2018-06-08T05:48:51.739Z,1.23
2018-06-08T05:51:19.187Z,1.05
2018-06-08T05:53:46.736Z,1.20
2018-06-08T05:56:14.165Z,1.40
2018-06-08T05:58:41.630Z,1.35
2018-06-08T06:01:09.112Z,1.33
2018-06-08T06:03:37.171Z,1.73
2018-06-08T06:06:04.758Z,1.35
2018-06-08T06:08:32.255Z,1.20
2018-06-08T06:10:59.669Z,1.40
2018-06-08T06:13:27.086Z,1.67
2018-06-08T06:15:54.775Z,1.95
2018-06-08T06:18:22.274Z,1.60
2018-06-08T06:20:49.752Z,1.25
2018-06-08T06:23:17.347Z,1.23
2018-06-08T06:25:44.863Z,1.52
2018-06-08T06:28:12.287Z,1.10
2018-06-08T06:30:40.282Z,1.35
2018-06-08T06:33:07.724Z,0.95
2018-06-08T06:35:35.206Z,1.55
2018-06-08T06:38:02.670Z,1.35
2018-06-08T06:40:30.238Z,2.35
2018-06-08T06:42:57.931Z,2.35
2018-06-08T06:45:25.460Z,3.25
2018-06-08T06:47:52.896Z,2.78
2018-06-08T06:50:20.348Z,2.33
2018-06-08T06:52:47.954Z,1.73
2018-06-08T06:55:15.399Z,1.85
2018-06-08T06:57:43.033Z,1.92
2018-06-08T07:00:10.641Z,2.20
2018-06-08T07:02:38.062Z,2.03
2018-06-08T07:07:39.984Z,1.70
2018-06-08T07:10:07.390Z,2.20
2018-06-08T07:12:34.880Z,1.70
2018-06-08T07:15:02.303Z,1.95
2018-06-08T07:17:30.175Z,1.70
2018-06-08T07:19:57.824Z,1.40
2018-06-08T07:22:25.273Z,1.50
2018-06-08T07:24:54.100Z,1.40
2018-06-08T07:27:22.800Z,2.03
2018-06-08T07:29:53.980Z,1.90
2018-06-08T07:32:21.476Z,1.80
2018-06-08T07:34:48.916Z,1.70
2018-06-08T07:37:16.359Z,1.98
2018-06-08T07:39:44.200Z,1.60
2018-06-08T07:42:11.856Z,1.48
2018-06-08T07:44:39.360Z,1.70
2018-06-08T07:47:06.872Z,1.62
2018-06-08T07:49:34.361Z,2.10
2018-06-08T07:52:01.840Z,2.50
2018-06-08T07:54:29.265Z,3.10
2018-06-08T07:56:56.743Z,2.97
2018-06-08T07:59:24.562Z,2.00
2018-06-08T08:01:52.046Z,1.90
2018-06-08T08:04:19.555Z,3.30
2018-06-08T08:06:46.993Z,1.75
2018-06-08T08:09:14.472Z,1.67
2018-06-08T08:11:41.861Z,1.40
2018-06-08T08:14:09.420Z,1.12
2018-06-08T08:16:37.248Z,1.98
2018-06-08T08:19:05.472Z,1.48
2018-06-08T08:21:32.959Z,1.75
2018-06-08T08:24:00.555Z,2.35
2018-06-08T08:26:28.004Z,1.90
2018-06-08T08:28:55.456Z,1.80
2018-06-08T08:31:23.541Z,1.77
2018-06-08T08:33:53.181Z,1.58
2018-06-08T08:36:20.638Z,2.10
2018-06-08T08:38:48.137Z,1.75
2018-06-08T08:41:15.651Z,1.73
2018-06-08T08:43:43.148Z,2.65
2018-06-08T08:46:10.570Z,2.08
2018-06-08T08:48:38.028Z,2.25
2018-06-08T08:51:06.269Z,2.70
2018-06-08T08:53:33.893Z,2.10
2018-06-08T08:56:01.645Z,2.37
2018-06-08T08:58:29.134Z,3.67
2018-06-08T09:00:56.609Z,3.83
2018-06-08T09:03:24.260Z,3.97
2018-06-08T09:05:51.695Z,3.08
2018-06-08T09:08:19.204Z,4.03
2018-06-08T09:10:46.802Z,5.18
2018-06-08T09:13:15.513Z,2.90
2018-06-08T09:15:42.940Z,2.30
2018-06-08T09:18:10.540Z,2.70
2018-06-08T09:20:38.028Z,2.60
2018-06-08T09:23:05.591Z,2.78
2018-06-08T09:25:33.008Z,3.03
2018-06-08T09:28:04.037Z,2.85
2018-06-08T09:30:31.961Z,3.00
2018-06-08T09:32:59.524Z,2.80
2018-06-08T09:35:26.935Z,2.78
2018-06-08T09:37:54.510Z,2.15
2018-06-08T09:40:22.016Z,2.50
2018-06-08T09:42:49.683Z,2.80
2018-06-08T09:45:17.335Z,3.60
2018-06-08T09:47:44.841Z,4.03
2018-06-08T09:50:12.303Z,3.10
2018-06-08T09:52:40.977Z,4.05
2018-06-08T09:55:08.595Z,3.05
2018-06-08T09:57:36.091Z,4.25
2018-06-08T10:00:03.774Z,3.90
2018-06-08T10:04:58.332Z,4.15
2018-06-08T10:07:25.916Z,5.22
2018-06-08T10:09:53.341Z,5.40
2018-06-08T10:12:21.753Z,5.10
2018-06-08T10:14:49.236Z,5.35
2018-06-08T10:17:16.689Z,4.10
2018-06-08T10:19:44.169Z,4.32
2018-06-08T10:22:11.664Z,5.93
2018-06-08T10:24:42.690Z,6.37
2018-06-08T10:27:10.701Z,5.32
2018-06-08T10:29:38.215Z,5.60
2018-06-08T10:32:06.946Z,4.60
2018-06-08T10:34:34.421Z,7.15
2018-06-08T10:37:01.943Z,4.50
2018-06-08T10:39:29.426Z,6.10
2018-06-08T10:41:56.956Z,5.12
2018-06-08T10:44:24.367Z,4.65
2018-06-08T10:49:18.945Z,6.55
2018-06-08T10:51:46.468Z,6.18
2018-06-08T10:54:15.489Z,5.87
2018-06-08T10:56:42.972Z,6.10
2018-06-08T10:59:10.439Z,5.90
2018-06-08T12:03:03.627Z,4.60
2018-06-08T12:05:31.167Z,4.20
2018-06-08T12:07:59.250Z,4.60
2018-06-08T12:10:27.813Z,5.20
2018-06-08T12:17:49.578Z,5.80
2018-06-08T12:20:17.116Z,4.25
2018-06-08T12:32:36.678Z,8.00
2018-06-08T12:35:04.191Z,6.95
2018-06-08T12:37:31.821Z,5.50
2018-06-08T12:39:59.348Z,5.37
2018-06-08T12:42:26.912Z,7.68
2018-06-08T12:44:54.374Z,6.80
2018-06-08T12:47:21.925Z,6.65
2018-06-08T12:49:50.492Z,5.68
2018-06-08T12:52:17.978Z,7.43
2018-06-08T12:54:46.023Z,7.32
2018-06-08T12:57:13.508Z,7.72
2018-06-08T12:59:42.205Z,7.05
2018-06-08T13:02:10.460Z,7.70
2018-06-08T13:04:38.080Z,6.30
2018-06-08T13:21:48.486Z,7.97
2018-06-08T13:24:16.142Z,7.60
2018-06-08T13:26:44.760Z,8.50
2018-06-08T13:39:01.396Z,7.05
2018-06-08T13:41:28.888Z,6.00
2018-06-08T13:43:56.333Z,6.90
2018-06-08T13:46:23.891Z,7.10
2018-06-08T13:48:51.536Z,6.57
2018-06-08T14:30:34.349Z,5.70
2018-06-08T14:33:01.882Z,5.05
2018-06-08T14:35:29.330Z,5.80
2018-06-08T14:37:59.730Z,5.22
2018-06-08T14:40:27.245Z,5.30
2018-06-08T14:42:54.771Z,4.62
2018-06-08T14:45:22.231Z,4.80
2018-06-08T14:47:49.815Z,5.25
2018-06-08T14:50:17.463Z,5.37
2018-06-08T14:52:45.167Z,6.07
2018-06-08T14:55:12.610Z,5.57
2018-06-08T14:57:41.206Z,5.20
2018-06-08T15:00:08.858Z,7.30
2018-06-08T15:02:36.998Z,4.65
2018-06-08T15:05:05.072Z,4.77
2018-06-08T15:07:32.565Z,5.22
2018-06-08T15:10:00.160Z,5.30
2018-06-08T15:12:27.570Z,6.03
2018-06-08T15:14:55.007Z,4.90
2018-06-08T15:17:23.122Z,5.37
2018-06-08T15:19:50.609Z,6.10
2018-06-08T15:22:18.085Z,5.05
2018-06-08T15:24:46.040Z,4.35
2018-06-08T15:27:14.504Z,5.22
2018-06-08T15:29:42.038Z,4.85
2018-06-08T15:32:09.544Z,4.30
2018-06-08T15:34:37.036Z,4.33
2018-06-08T15:37:08.057Z,4.65
2018-06-08T15:39:35.621Z,4.47
2018-06-08T15:42:03.140Z,4.45
2018-06-08T15:44:31.707Z,4.93
2018-06-08T15:46:59.781Z,3.13
2018-06-08T15:49:27.232Z,4.15
2018-06-08T15:51:54.686Z,3.67
2018-06-08T15:54:22.299Z,3.53
2018-06-08T15:56:49.884Z,4.90
2018-06-08T15:59:17.329Z,3.67
2018-06-08T16:01:44.966Z,3.35
2018-06-08T16:04:12.458Z,3.40
2018-06-08T16:06:41.976Z,4.40
2018-06-08T16:09:12.496Z,4.50
2018-06-08T16:11:39.933Z,3.65
2018-06-08T16:14:08.315Z,3.50
2018-06-08T16:21:30.550Z,6.07
2018-06-08T16:23:58.019Z,3.12
2018-06-08T16:26:25.484Z,3.28
2018-06-08T16:28:52.946Z,3.45
2018-06-08T16:31:20.376Z,2.83
2018-06-08T16:33:49.084Z,3.75
2018-06-08T16:36:18.373Z,2.90
2018-06-08T16:38:46.057Z,3.42
2018-06-08T16:41:14.582Z,3.65
2018-06-08T16:43:42.089Z,3.17
2018-06-08T16:46:09.552Z,2.53
2018-06-08T16:48:37.145Z,3.83
2018-06-08T16:51:04.616Z,3.58
2018-06-08T16:53:32.131Z,2.70
2018-06-08T16:55:59.529Z,2.33
2018-06-08T17:00:54.102Z,2.45
2018-06-08T17:03:21.536Z,4.07
2018-06-08T17:05:49.046Z,2.95
2018-06-08T17:08:16.584Z,3.53
2018-06-08T17:10:44.020Z,3.20
2018-06-08T17:13:11.437Z,3.62
2018-06-08T17:15:38.949Z,3.95
2018-06-08T17:18:06.560Z,2.80
2018-06-08T17:20:33.997Z,3.50
2018-06-08T17:23:01.408Z,2.25
2018-06-08T17:25:28.879Z,2.72
2018-06-08T17:27:56.340Z,2.90
2018-06-08T17:30:23.821Z,3.47
2018-06-08T17:32:58.996Z,2.22
2018-06-08T17:35:26.508Z,2.58
2018-06-08T17:37:53.989Z,2.80
2018-06-08T17:40:21.473Z,3.05
2018-06-08T17:42:48.985Z,2.50
2018-06-08T17:45:16.490Z,4.60
2018-06-08T17:47:43.991Z,5.20
2018-06-08T17:50:11.455Z,3.22
2018-06-08T17:52:38.981Z,2.70
2018-06-08T17:55:07.577Z,2.40
2018-06-08T17:57:35.036Z,2.10
2018-06-08T18:00:02.477Z,5.05
2018-06-08T18:02:29.911Z,2.17
2018-06-08T18:04:57.313Z,3.55
2018-06-08T18:07:24.816Z,1.92
2018-06-08T18:09:52.266Z,7.43
2018-06-08T18:12:19.793Z,3.12
2018-06-08T18:14:47.225Z,3.45
2018-06-08T18:17:14.994Z,2.40
2018-06-08T18:19:42.606Z,2.05
2018-06-08T18:22:10.074Z,1.87
2018-06-08T18:24:37.548Z,2.95
2018-06-08T18:27:05.991Z,2.97
2018-06-08T18:29:33.412Z,1.98
2018-06-08T18:32:01.890Z,2.05
2018-06-08T18:34:29.383Z,2.42
2018-06-08T18:36:57.019Z,2.42
2018-06-08T18:39:24.499Z,3.28
2018-06-08T18:41:53.308Z,2.92
2018-06-08T18:44:20.730Z,2.90
2018-06-08T18:46:48.197Z,3.65
2018-06-08T18:49:15.607Z,1.73
2018-06-08T18:51:43.057Z,2.45
2018-06-08T18:54:10.503Z,3.67
2018-06-08T18:56:38.009Z,3.97
2018-06-08T18:59:05.444Z,3.17
2018-06-08T19:01:32.920Z,3.58
2018-06-08T19:04:00.379Z,2.85
2018-06-08T19:06:27.861Z,3.22
2018-06-08T19:08:55.266Z,2.40
2018-06-08T19:11:22.743Z,3.05
2018-06-08T19:13:50.313Z,2.22
2018-06-08T19:16:17.864Z,2.25
2018-06-08T19:18:45.324Z,16.33
2018-06-08T19:21:12.709Z,4.85
2018-06-08T19:23:40.879Z,9.00
2018-06-08T19:26:08.377Z,7.57
2018-06-08T19:28:38.310Z,4.78
2018-06-08T19:31:06.266Z,3.28
2018-06-08T19:33:33.781Z,2.65
2018-06-08T19:36:01.366Z,3.55
2018-06-08T19:38:28.859Z,2.78
2018-06-08T19:40:56.375Z,3.15
2018-06-08T19:43:23.844Z,2.85
2018-06-08T19:45:51.337Z,5.20
2018-06-08T19:48:18.922Z,4.25
2018-06-08T19:50:47.394Z,3.70
2018-06-08T19:53:14.793Z,2.75
2018-06-08T19:55:42.397Z,2.60
2018-06-08T19:58:09.896Z,3.55
2018-06-08T20:00:37.355Z,3.22
2018-06-08T20:03:04.808Z,4.00
2018-06-08T20:05:32.875Z,5.32
2018-06-08T20:08:00.401Z,4.28
2018-06-08T20:10:27.887Z,4.30
2018-06-08T20:12:55.492Z,5.05
2018-06-08T20:15:22.994Z,3.33
2018-06-08T20:17:50.397Z,3.28
2018-06-08T20:20:17.851Z,2.83
2018-06-08T20:22:45.656Z,3.95
2018-06-08T20:25:13.215Z,2.40
2018-06-08T20:27:40.671Z,1.80
2018-06-08T20:30:08.147Z,3.40
2018-06-08T20:32:36.365Z,2.42
2018-06-08T20:35:03.913Z,2.20
2018-06-08T20:37:31.538Z,2.70
2018-06-08T20:39:59.038Z,2.92
2018-06-08T20:42:26.620Z,2.62
2018-06-08T20:44:54.049Z,2.35
2018-06-08T20:47:21.457Z,2.58
2018-06-08T20:49:49.520Z,2.45
2018-06-08T20:52:17.836Z,3.00
2018-06-08T20:54:45.292Z,2.92
2018-06-08T20:57:12.697Z,1.98
2018-06-08T20:59:40.179Z,2.10
2018-06-08T21:02:07.729Z,2.45
2018-06-08T21:04:35.393Z,2.85
2018-06-08T21:07:02.832Z,2.80
2018-06-08T21:09:30.297Z,2.55
2018-06-08T21:11:58.140Z,1.87
2018-06-08T21:14:25.547Z,1.95
2018-06-08T21:16:53.226Z,2.80
2018-06-08T21:19:30.617Z,2.00
2018-06-08T21:21:58.127Z,2.45
2018-06-08T21:24:25.581Z,2.95
2018-06-08T21:26:53.115Z,1.92
2018-06-08T21:29:20.632Z,2.65
2018-06-08T21:31:48.092Z,2.10
2018-06-08T21:34:15.906Z,2.42
2018-06-08T21:36:43.852Z,2.40
2018-06-08T21:39:11.334Z,3.20
2018-06-08T21:41:38.754Z,1.87
2018-06-08T21:44:06.210Z,2.15
2018-06-08T21:46:33.666Z,2.10
2018-06-08T21:49:01.114Z,2.78
2018-06-08T21:51:28.591Z,2.78
2018-06-08T21:53:56.036Z,2.00
2018-06-08T21:56:24.255Z,2.65
2018-06-08T21:58:52.610Z,2.17
2018-06-08T22:01:20.061Z,2.40
2018-06-08T22:03:48.395Z,2.62
2018-06-08T22:06:15.801Z,3.90
2018-06-08T22:08:43.244Z,2.90
2018-06-08T22:11:10.712Z,2.92
2018-06-08T22:13:38.137Z,3.00
2018-06-08T22:16:05.598Z,2.47
2018-06-08T22:18:33.170Z,3.05
2018-06-08T22:21:00.625Z,2.30
2018-06-08T22:23:28.069Z,2.87
2018-06-08T22:25:55.541Z,4.35
2018-06-08T22:28:22.975Z,2.87
2018-06-08T22:30:50.429Z,2.95
2018-06-08T22:33:17.978Z,2.42
2018-06-08T22:35:45.443Z,2.25
2018-06-08T22:38:12.924Z,2.45
2018-06-08T22:40:40.361Z,2.55
2018-06-08T22:43:07.812Z,4.55
2018-06-08T22:45:35.304Z,2.12
2018-06-08T22:48:02.778Z,4.30
2018-06-08T22:50:30.228Z,2.80
2018-06-08T22:52:57.685Z,3.25
2018-06-08T22:55:25.156Z,2.95
2018-06-08T22:57:52.676Z,2.62
2018-06-08T23:00:20.154Z,2.47
2018-06-08T23:02:48.442Z,2.60
2018-06-08T23:05:16.848Z,2.97
2018-06-08T23:07:45.191Z,2.15
2018-06-08T23:10:12.600Z,2.47
2018-06-08T23:12:40.070Z,2.70
2018-06-08T23:15:07.482Z,2.65
2018-06-08T23:17:34.890Z,2.85
2018-06-08T23:20:02.370Z,3.10
2018-06-08T23:22:29.823Z,3.45
2018-06-08T23:24:57.289Z,2.70
2018-06-08T23:27:24.725Z,3.20
2018-06-08T23:29:52.180Z,4.15
2018-06-08T23:32:19.584Z,3.10
2018-06-08T23:34:47.101Z,3.03
2018-06-08T23:37:14.574Z,3.62
2018-06-08T23:39:42.023Z,3.33
2018-06-08T23:42:09.626Z,3.60
2018-06-08T23:44:37.043Z,3.33
2018-06-08T23:47:04.503Z,4.70
2018-06-08T23:49:31.976Z,3.05
2018-06-08T23:51:59.506Z,4.00
2018-06-08T23:54:28.090Z,6.10
2018-06-08T23:56:55.824Z,3.95
2018-06-08T23:59:24.073Z,3.72
